Time;durP1;ratioP1;P1;durP2;ratioP2;P2;SDS_P1;SDS_P2;PMS_P1;PMS_P2;Temp;Humidity;BMP_temperature;BMP_pressure;BME280_temperature;BME280_humidity;BME280_pressure;Samples;Min_cycle;Max_cycle;Signal;HPM_P1;HPM_P2
2022/07/23 00:51:50;;;;;;;15.15;10.85;;;24.20;99.90;;;;;;2671034;23;20338;-92
2022/07/23 00:54:19;;;;;;;13.18;11.23;;;24.20;99.90;;;;;;4917017;29;20072;-93
2022/07/23 00:56:47;;;;;;;15.00;11.27;;;24.20;99.90;;;;;;4918198;29;20087;-94
2022/07/23 00:59:17;;;;;;;14.40;10.63;;;24.10;99.90;;;;;;4918115;29;20048;-92
2022/07/23 01:01:45;;;;;;;14.10;10.65;;;24.20;99.90;;;;;;4883673;29;20029;-93
2022/07/23 01:04:11;;;;;;;22.40;10.65;;;24.20;99.90;;;;;;4883615;29;20033;-92
2022/07/23 01:06:39;;;;;;;16.02;10.90;;;24.20;99.90;;;;;;4883915;29;20084;-93
2022/07/23 01:09:07;;;;;;;17.10;11.20;;;24.20;99.90;;;;;;4883722;29;20419;-94
2022/07/23 01:11:36;;;;;;;14.05;10.80;;;24.30;99.90;;;;;;4883574;29;20031;-93
2022/07/23 01:14:14;;;;;;;13.68;11.18;;;24.30;99.90;;;;;;4883982;29;20040;-93
2022/07/23 01:16:43;;;;;;;14.98;9.75;;;24.30;99.90;;;;;;4883560;29;20039;-92
2022/07/23 01:19:10;;;;;;;16.90;9.52;;;24.30;99.90;;;;;;4883208;29;20500;-94
2022/07/23 01:21:42;;;;;;;10.90;9.00;;;24.40;99.90;;;;;;4883478;29;20036;-91
2022/07/23 01:31:36;;;;;;;12.80;9.32;;;24.30;99.90;;;;;;5477361;23;20079;-93
2022/07/23 01:34:21;;;;;;;14.52;8.93;;;24.10;99.90;;;;;;4881580;29;20043;-92
2022/07/23 01:36:51;;;;;;;11.98;8.65;;;24.00;99.90;;;;;;4901973;29;20397;-93
2022/07/23 01:39:41;;;;;;;10.77;8.68;;;23.90;99.90;;;;;;4903726;29;20050;-94
2022/07/23 01:42:18;;;;;;;13.45;8.80;;;23.80;99.90;;;;;;4906289;29;20036;-93
2022/07/23 01:44:54;;;;;;;12.60;9.45;;;23.70;99.90;;;;;;4907054;29;20059;-94
2022/07/23 01:48:24;;;;;;;15.20;9.23;;;23.70;99.90;;;;;;4907921;29;20082;-93
2022/07/23 01:51:59;;;;;;;;;;;;;;;;;;;;;
2022/07/23 01:54:54;;;;;;;13.57;9.68;;;23.70;99.90;;;;;;4865550;29;20044;-93
2022/07/23 01:58:07;;;;;;;10.70;8.13;;;23.80;99.90;;;;;;4849580;29;20033;-94
2022/07/23 02:01:02;;;;;;;11.10;8.95;;;23.80;99.90;;;;;;4834363;29;20042;-95
2022/07/23 02:03:39;;;;;;;17.25;8.35;;;23.80;99.90;;;;;;4830147;29;20042;-94
2022/07/23 02:06:44;;;;;;;;;;;;;;;;;;;;;
2022/07/23 02:09:39;;;;;;;11.65;8.45;;;23.70;99.90;;;;;;4830036;29;20045;-94
2022/07/23 02:12:51;;;;;;;;;;;;;;;;;;;;;
2022/07/23 02:19:23;;;;;;;;;;;;;;;;;;;;;
2022/07/23 02:50:42;;;;;;;9.93;7.60;;;23.70;99.90;;;;;;5249072;23;20055;-94
2022/07/23 02:53:27;;;;;;;9.48;7.25;;;23.70;99.90;;;;;;4924758;29;20473;-94
2022/07/23 02:56:54;;;;;;;;;;;;;;;;;;;;;
2022/07/23 02:59:23;;;;;;;11.57;7.57;;;23.70;99.90;;;;;;4860169;29;20073;-95
2022/07/23 03:01:50;;;;;;;9.60;8.30;;;23.80;99.90;;;;;;4846400;29;20173;-94
2022/07/23 03:04:28;;;;;;;12.18;8.20;;;23.90;99.90;;;;;;4861788;29;20496;-94
2022/07/23 03:06:58;;;;;;;12.48;8.00;;;23.90;99.90;;;;;;4864119;29;20034;-94
2022/07/23 03:09:26;;;;;;;12.15;8.35;;;24.00;99.90;;;;;;4863408;29;20120;-93
2022/07/23 03:15:20;;;;;;;10.70;7.93;;;24.00;99.90;;;;;;5293690;23;20063;-93
2022/07/23 03:17:50;;;;;;;13.95;8.43;;;24.00;99.90;;;;;;4943275;29;20039;-96
2022/07/23 03:20:20;;;;;;;13.82;8.50;;;24.00;99.90;;;;;;4923866;29;20027;-92
2022/07/23 03:22:46;;;;;;;15.07;8.75;;;24.00;99.90;;;;;;4907740;29;20035;-93
2022/07/23 03:25:13;;;;;;;13.32;8.13;;;24.00;99.90;;;;;;4913115;29;20062;-94
2022/07/23 03:27:40;;;;;;;11.85;8.93;;;24.00;99.90;;;;;;4923738;29;20032;-93
2022/07/23 03:30:10;;;;;;;12.02;9.07;;;23.90;99.90;;;;;;4922834;29;20056;-92
2022/07/23 03:32:37;;;;;;;16.38;9.32;;;23.90;99.90;;;;;;4922771;29;20039;-93
2022/07/23 03:35:05;;;;;;;17.73;11.95;;;23.90;99.90;;;;;;4923234;29;20457;-93
2022/07/23 03:37:32;;;;;;;22.05;15.82;;;23.90;99.90;;;;;;4922888;29;20058;-94
2022/07/23 03:40:00;;;;;;;15.30;12.65;;;23.90;99.90;;;;;;4923330;29;20031;-93
2022/07/23 03:42:27;;;;;;;21.75;15.25;;;23.90;99.90;;;;;;4922940;29;20032;-95
2022/07/23 03:44:54;;;;;;;20.23;15.55;;;23.80;99.90;;;;;;4925418;29;20040;-95
2022/07/23 03:47:21;;;;;;;27.33;17.92;;;23.70;99.90;;;;;;4923366;29;20027;-93
2022/07/23 03:49:52;;;;;;;23.83;18.00;;;23.70;99.90;;;;;;4923391;29;20034;-93
2022/07/23 03:52:19;;;;;;;25.80;17.48;;;23.70;99.90;;;;;;4923177;29;20078;-94
2022/07/23 03:54:48;;;;;;;28.58;18.35;;;23.50;99.90;;;;;;4922954;29;20031;-93
2022/07/23 03:57:15;;;;;;;39.28;20.13;;;23.50;99.90;;;;;;4922651;29;20032;-95
2022/07/23 03:59:42;;;;;;;30.90;19.92;;;23.50;99.90;;;;;;4922635;29;20493;-95
2022/07/23 04:02:08;;;;;;;30.25;19.75;;;23.50;99.90;;;;;;4922559;29;20032;-94
2022/07/23 04:04:35;;;;;;;29.50;19.30;;;23.50;99.90;;;;;;4922432;29;20059;-94
2022/07/23 04:07:02;;;;;;;29.55;19.23;;;23.50;99.90;;;;;;4922484;29;20057;-95
2022/07/23 04:09:30;;;;;;;25.48;17.05;;;23.50;99.90;;;;;;4922686;29;20059;-93
2022/07/23 04:11:57;;;;;;;25.05;16.17;;;23.60;99.90;;;;;;4922233;29;20028;-93
2022/07/23 04:14:27;;;;;;;23.45;16.13;;;23.60;99.90;;;;;;4922202;29;20056;-94
2022/07/23 04:16:59;;;;;;;22.00;15.57;;;23.70;99.90;;;;;;4907190;29;20036;-94
2022/07/23 04:19:27;;;;;;;28.83;15.65;;;23.70;99.90;;;;;;4907201;29;20489;-92
2022/07/23 04:22:03;;;;;;;23.23;15.27;;;23.80;99.90;;;;;;4908045;29;20028;-93
2022/07/23 04:24:32;;;;;;;20.42;14.43;;;23.80;99.90;;;;;;4907409;29;20094;-93
2022/07/23 04:27:00;;;;;;;23.85;13.40;;;23.80;99.90;;;;;;4909494;29;20043;-93
2022/07/23 04:29:30;;;;;;;22.70;13.85;;;23.90;99.90;;;;;;4911446;29;20028;-93
2022/07/23 04:32:02;;;;;;;18.52;12.10;;;23.90;99.90;;;;;;4911093;29;20028;-95
2022/07/23 04:34:29;;;;;;;18.05;11.48;;;24.00;99.90;;;;;;4910689;29;20102;-93
2022/07/23 04:36:59;;;;;;;18.05;10.05;;;24.10;99.90;;;;;;4903660;29;20032;-93
2022/07/23 04:39:28;;;;;;;15.13;10.13;;;24.40;99.90;;;;;;4906250;29;20043;-93
2022/07/23 04:41:54;;;;;;;14.73;9.52;;;24.70;99.90;;;;;;4906144;29;20375;-93
2022/07/23 04:44:27;;;;;;;13.30;9.68;;;24.90;99.90;;;;;;4921999;29;20515;-93
2022/07/23 04:46:53;;;;;;;15.70;9.90;;;25.30;99.90;;;;;;4921823;29;20066;-93
2022/07/23 04:49:20;;;;;;;12.02;10.50;;;26.10;99.90;;;;;;4921955;29;20034;-93
2022/07/23 04:51:47;;;;;;;12.30;10.93;;;27.20;99.90;;;;;;4906244;29;20046;-95
2022/07/23 04:54:17;;;;;;;13.90;12.43;;;28.80;99.90;;;;;;4905677;29;20549;-94
2022/07/23 04:56:50;;;;;;;15.20;13.65;;;29.90;99.90;;;;;;4905714;29;20399;-94
2022/07/23 04:59:23;;;;;;;18.20;14.88;;;30.80;99.90;;;;;;4923581;29;20027;-93
2022/07/23 05:01:56;;;;;;;15.73;14.32;;;31.70;99.90;;;;;;4929682;29;20027;-95
2022/07/23 05:04:26;;;;;;;16.48;15.23;;;32.80;99.90;;;;;;4928131;29;20031;-93
2022/07/23 05:06:52;;;;;;;16.05;14.85;;;33.20;99.90;;;;;;4927349;29;20098;-94
2022/07/23 05:09:19;;;;;;;17.08;15.40;;;33.50;99.90;;;;;;4928878;29;20043;-95
2022/07/23 05:11:45;;;;;;;19.75;16.48;;;33.90;99.90;;;;;;4926355;29;20024;-94
2022/07/23 05:14:13;;;;;;;16.88;15.40;;;33.90;99.90;;;;;;4927205;29;20527;-94
2022/07/23 05:16:42;;;;;;;16.23;14.68;;;34.20;99.90;;;;;;4944338;29;20032;-94
2022/07/23 05:19:16;;;;;;;17.83;15.68;;;34.20;99.90;;;;;;4927382;29;20039;-95
2022/07/23 05:21:42;;;;;;;16.13;14.68;;;34.00;99.90;;;;;;4926803;29;20042;-93
2022/07/23 05:24:09;;;;;;;16.30;14.90;;;34.30;99.90;;;;;;4926321;29;20027;-94
2022/07/23 05:26:36;;;;;;;16.02;14.43;;;34.80;99.90;;;;;;4926801;29;20054;-93
2022/07/23 05:29:04;;;;;;;15.90;14.73;;;35.40;99.90;;;;;;4941229;29;20035;-94
2022/07/23 05:31:31;;;;;;;16.05;14.85;;;35.70;99.90;;;;;;4929533;29;20031;-95
2022/07/23 05:33:57;;;;;;;15.95;14.70;;;35.50;99.90;;;;;;4927366;29;20042;-93
2022/07/23 05:36:27;;;;;;;15.43;14.23;;;35.70;99.90;;;;;;4929314;29;20059;-94
2022/07/23 05:38:56;;;;;;;16.05;14.73;;;35.70;99.90;;;;;;4927617;29;20031;-94
2022/07/23 05:41:23;;;;;;;16.50;15.05;;;36.00;99.90;;;;;;4925320;29;20114;-95
2022/07/23 05:43:50;;;;;;;19.33;14.68;;;36.60;99.90;;;;;;4924890;29;20035;-94
2022/07/23 05:46:16;;;;;;;17.05;14.68;;;37.80;99.90;;;;;;4940155;29;20023;-93
2022/07/23 05:48:56;;;;;;;16.33;14.75;;;38.70;99.90;;;;;;4924799;29;20047;-95
2022/07/23 05:51:42;;;;;;;18.90;14.10;;;38.30;99.40;;;;;;4943723;29;20102;-96
2022/07/23 05:54:10;;;;;;;15.15;13.55;;;37.80;98.90;;;;;;4926593;29;20046;-93
2022/07/23 05:56:38;;;;;;;14.85;13.50;;;37.50;98.50;;;;;;4927047;29;20024;-93
2022/07/23 05:59:06;;;;;;;15.07;13.70;;;37.70;97.70;;;;;;4926713;29;20093;-93
2022/07/23 06:01:33;;;;;;;14.50;13.60;;;38.40;96.60;;;;;;4943201;29;20029;-94
2022/07/23 06:04:10;;;;;;;17.38;13.98;;;39.10;95.30;;;;;;4929373;29;20104;-94
2022/07/23 06:06:42;;;;;;;15.02;14.02;;;39.50;94.10;;;;;;4925437;29;20035;-94
2022/07/23 06:09:13;;;;;;;16.63;14.18;;;39.00;94.10;;;;;;4924137;29;20047;-94
2022/07/23 06:11:41;;;;;;;15.10;13.77;;;39.40;93.60;;;;;;4940004;29;20493;-93
2022/07/23 06:14:07;;;;;;;15.68;14.25;;;39.50;93.30;;;;;;4924930;29;20063;-94
2022/07/23 06:16:56;;;;;;;15.13;13.88;;;39.20;93.00;;;;;;4932482;29;20033;-94
2022/07/23 06:19:57;;;;;;;18.83;15.45;;;39.10;93.00;;;;;;4938517;29;20458;-95
2022/07/23 06:42:17;;;;;;;13.48;12.68;;;39.50;91.10;;;;;;5410672;23;20055;-82
2022/07/23 06:44:45;;;;;;;13.65;12.77;;;39.00;88.40;;;;;;4899868;29;20180;-70
2022/07/23 06:47:14;;;;;;;13.73;12.93;;;38.60;88.80;;;;;;4923322;29;20464;-83
2022/07/23 06:49:43;;;;;;;13.85;13.02;;;38.40;89.30;;;;;;4925459;29;20039;-88
2022/07/23 06:52:10;;;;;;;14.15;13.27;;;38.90;86.50;;;;;;4910373;29;20020;-90
2022/07/23 06:54:39;;;;;;;14.70;13.63;;;38.60;86.50;;;;;;4910312;29;20470;-90
2022/07/23 06:57:06;;;;;;;15.02;13.45;;;38.70;86.50;;;;;;4913226;29;20058;-91
2022/07/23 06:59:36;;;;;;;14.68;13.77;;;38.80;84.90;;;;;;4911279;29;20042;-90
2022/07/23 07:02:06;;;;;;;13.98;13.05;;;38.70;85.10;;;;;;4910817;29;20031;-89
2022/07/23 07:04:33;;;;;;;14.95;13.50;;;38.30;85.40;;;;;;4908205;29;20058;-91
2022/07/23 07:06:59;;;;;;;14.20;13.05;;;39.00;84.50;;;;;;4906677;29;20103;-92
2022/07/23 07:09:26;;;;;;;14.95;13.63;;;39.30;84.30;;;;;;4993974;23;20026;-92
2022/07/23 07:11:53;;;;;;;14.73;13.73;;;39.60;83.40;;;;;;4903897;29;20036;-91
2022/07/23 07:14:19;;;;;;;13.18;12.32;;;39.70;82.60;;;;;;4930625;29;20062;-90
2022/07/23 07:16:45;;;;;;;14.27;12.82;;;39.70;79.50;;;;;;4888559;29;20024;-90
2022/07/23 07:22:11;;;;;;;14.73;13.63;;;38.80;80.00;;;;;;5013595;23;20125;-89
2022/07/23 07:51:32;;;;;;;14.70;13.80;;;39.30;76.60;;;;;;5122650;23;20484;-89
2022/07/23 07:54:00;;;;;;;14.07;13.18;;;39.40;76.20;;;;;;4935414;29;20027;-90
2022/07/23 07:56:26;;;;;;;14.30;13.20;;;39.00;76.10;;;;;;4933404;28;20089;-89
2022/07/23 07:58:53;;;;;;;14.52;13.50;;;39.00;75.40;;;;;;4939763;28;20480;-92
2022/07/23 08:01:20;;;;;;;14.18;13.27;;;39.00;75.60;;;;;;4931967;29;20027;-90
2022/07/23 08:03:46;;;;;;;14.50;13.60;;;39.00;75.20;;;;;;4924473;29;20023;-90
2022/07/23 08:06:13;;;;;;;13.98;12.80;;;38.70;75.60;;;;;;4937689;29;20071;-91
2022/07/23 08:08:39;;;;;;;14.55;13.65;;;39.00;74.00;;;;;;4937962;29;20047;-92
2022/07/23 08:11:06;;;;;;;14.45;13.25;;;38.80;73.90;;;;;;4943628;28;20030;-90
2022/07/23 08:13:32;;;;;;;13.65;12.70;;;38.90;73.50;;;;;;4937428;29;20028;-91
2022/07/23 08:15:58;;;;;;;13.27;12.40;;;39.00;72.90;;;;;;4940303;28;20141;-91
2022/07/23 08:18:25;;;;;;;13.57;12.68;;;38.80;72.40;;;;;;4936240;28;20154;-91
2022/07/23 08:20:51;;;;;;;13.57;12.63;;;38.70;73.00;;;;;;4943969;28;20053;-90
2022/07/23 08:23:19;;;;;;;13.48;12.43;;;39.00;72.70;;;;;;4941409;28;20026;-91
2022/07/23 08:25:46;;;;;;;14.13;12.80;;;39.20;72.00;;;;;;4927679;28;20040;-91
2022/07/23 08:28:15;;;;;;;12.73;11.73;;;39.60;71.50;;;;;;4923677;29;20039;-91
2022/07/23 08:30:44;;;;;;;13.00;12.25;;;40.20;70.50;;;;;;4926253;29;20037;-91
2022/07/23 08:33:13;;;;;;;13.15;12.20;;;39.80;70.90;;;;;;4938525;28;20395;-90
2022/07/23 08:35:47;;;;;;;13.05;12.05;;;39.80;70.00;;;;;;4936189;29;20032;-90
2022/07/23 08:38:20;;;;;;;13.68;12.60;;;39.30;70.00;;;;;;4926588;29;20070;-90
2022/07/23 08:40:52;;;;;;;12.93;12.00;;;38.70;70.50;;;;;;4926140;28;20039;-90
2022/07/23 08:43:25;;;;;;;14.07;12.82;;;38.90;70.90;;;;;;4943547;28;20034;-89
2022/07/23 08:45:56;;;;;;;14.25;13.15;;;38.90;70.40;;;;;;4923477;29;20028;-90
2022/07/23 08:48:25;;;;;;;13.27;12.48;;;39.00;70.30;;;;;;4925359;29;20043;-90
2022/07/23 08:50:54;;;;;;;13.32;12.43;;;39.20;69.30;;;;;;4959850;28;20050;-90
2022/07/23 08:53:22;;;;;;;13.05;12.02;;;39.30;68.30;;;;;;4956688;28;20105;-89
2022/07/23 08:55:52;;;;;;;13.88;12.80;;;39.40;68.50;;;;;;4956092;28;20024;-89
2022/07/23 08:58:19;;;;;;;13.15;12.30;;;39.50;68.20;;;;;;4914762;28;20078;-92
2022/07/23 09:00:47;;;;;;;13.65;12.63;;;39.30;67.30;;;;;;4930669;29;20072;-89
2022/07/23 09:03:20;;;;;;;13.90;13.00;;;39.00;68.30;;;;;;4938778;28;20033;-89
2022/07/23 09:05:49;;;;;;;14.07;12.95;;;39.00;68.80;;;;;;4934090;29;20114;-90
2022/07/23 09:08:19;;;;;;;13.93;13.00;;;39.30;68.90;;;;;;4915928;28;20031;-89
2022/07/23 09:10:50;;;;;;;13.27;12.30;;;39.70;68.20;;;;;;4933811;29;20084;-89
2022/07/23 09:13:42;;;;;;;14.88;13.85;;;40.20;67.40;;;;;;4905084;29;20028;-88
2022/07/23 09:16:19;;;;;;;13.52;12.65;;;40.50;66.70;;;;;;4920593;29;20035;-88
2022/07/23 09:18:55;;;;;;;13.55;12.65;;;40.70;66.00;;;;;;4920816;29;20091;-88
2022/07/23 09:21:35;;;;;;;14.38;13.35;;;40.20;66.00;;;;;;4920664;29;20030;-88
2022/07/23 09:24:17;;;;;;;13.85;13.10;;;39.50;66.60;;;;;;4920549;29;20036;-88
2022/07/23 09:26:49;;;;;;;13.95;12.98;;;39.50;66.30;;;;;;4920770;29;20039;-89
2022/07/23 09:29:26;;;;;;;13.52;12.68;;;39.10;66.70;;;;;;4928989;28;20102;-91
2022/07/23 09:31:53;;;;;;;14.00;13.10;;;39.10;66.90;;;;;;4925550;29;20031;-91
2022/07/23 09:34:35;;;;;;;13.88;12.95;;;39.00;65.90;;;;;;4922160;29;20118;-91
2022/07/23 09:37:20;;;;;;;14.10;12.82;;;38.70;67.10;;;;;;4934099;29;20024;-92
2022/07/23 09:39:50;;;;;;;13.63;12.73;;;38.30;67.30;;;;;;4925050;28;20059;-92
2022/07/23 09:42:24;;;;;;;13.48;12.43;;;38.60;66.70;;;;;;4943432;28;20031;-90
2022/07/23 09:44:53;;;;;;;13.15;12.13;;;38.80;67.00;;;;;;4942886;28;20033;-90
2022/07/23 09:47:25;;;;;;;13.70;12.80;;;38.20;66.80;;;;;;4943138;28;20062;-92
2022/07/23 09:50:12;;;;;;;;;;;38.20;66.70;;;;;;4943533;28;20074;-91
2022/07/23 09:52:43;;;;;;;14.20;13.13;;;38.50;66.40;;;;;;4942585;28;19910;-92
2022/07/23 09:55:11;;;;;;;14.30;13.30;;;38.30;66.40;;;;;;4942461;28;20031;-91
2022/07/23 09:57:40;;;;;;;13.88;12.88;;;38.50;67.00;;;;;;4942449;28;20031;-91
2022/07/23 10:00:10;;;;;;;14.45;13.30;;;38.50;66.40;;;;;;4942638;28;20023;-91
2022/07/23 10:02:38;;;;;;;14.45;13.35;;;38.50;67.10;;;;;;4880933;29;20494;-92
2022/07/23 10:05:44;;;;;;;14.40;13.30;;;38.40;66.30;;;;;;4831699;29;20045;-90
2022/07/23 10:08:33;;;;;;;13.77;12.73;;;38.30;66.00;;;;;;4842354;29;20082;-90
2022/07/23 10:11:17;;;;;;;14.07;13.18;;;38.50;66.50;;;;;;4856683;29;20043;-89
2022/07/23 10:14:04;;;;;;;14.73;13.50;;;38.20;66.50;;;;;;4849002;29;20101;-89
2022/07/23 10:16:49;;;;;;;13.45;12.55;;;38.10;66.80;;;;;;4850329;29;20446;-89
2022/07/23 10:19:17;;;;;;;13.15;12.35;;;37.80;74.50;;;;;;4847566;29;20408;-89
2022/07/23 10:21:58;;;;;;;13.88;12.70;;;37.50;75.70;;;;;;4848204;29;20033;-90
2022/07/23 10:25:05;;;;;;;14.00;12.93;;;37.20;75.60;;;;;;4848152;29;20086;-89
2022/07/23 10:27:49;;;;;;;13.30;12.27;;;36.90;76.20;;;;;;4837919;29;20239;-92
2022/07/23 10:30:35;;;;;;;;;;;36.50;76.30;;;;;;4848631;29;20384;-91
2022/07/23 10:33:43;;;;;;;12.80;11.95;;;36.20;76.20;;;;;;4867527;29;19947;-91
2022/07/23 10:36:19;;;;;;;12.82;12.02;;;36.50;77.20;;;;;;4863268;29;20037;-92
2022/07/23 10:38:55;;;;;;;13.00;12.18;;;36.90;77.40;;;;;;4865962;29;20032;-92
2022/07/23 10:41:38;;;;;;;13.63;12.70;;;36.70;77.10;;;;;;4919738;29;20074;-92
2022/07/23 10:44:15;;;;;;;14.47;13.43;;;37.10;74.50;;;;;;4919806;29;20382;-93
2022/07/23 10:47:09;;;;;;;13.95;13.15;;;36.90;72.90;;;;;;4935616;29;20027;-92
2022/07/23 10:49:36;;;;;;;13.38;12.50;;;37.00;72.50;;;;;;4919312;29;20048;-92
2022/07/23 10:52:17;;;;;;;12.93;12.10;;;36.90;72.00;;;;;;4935580;29;20043;-93
2022/07/23 10:54:55;;;;;;;13.98;12.80;;;37.30;71.60;;;;;;4935248;29;20071;-92
2022/07/23 10:57:24;;;;;;;12.95;12.13;;;37.20;70.80;;;;;;4919696;29;20477;-92
2022/07/23 11:02:31;;;;;;;13.90;12.80;;;37.40;69.60;;;;;;4919673;29;20043;-94
2022/07/23 11:05:08;;;;;;;13.63;12.65;;;37.20;68.70;;;;;;4935397;29;20581;-92
2022/07/23 11:07:35;;;;;;;13.63;12.70;;;37.30;70.20;;;;;;4919421;29;20032;-92
2022/07/23 11:10:03;;;;;;;13.88;12.98;;;37.50;69.10;;;;;;4919560;29;20050;-91
2022/07/23 11:12:29;;;;;;;13.82;12.80;;;37.90;68.80;;;;;;4903845;29;20031;-93
2022/07/23 11:15:12;;;;;;;14.85;13.85;;;37.80;69.00;;;;;;4904198;29;20060;-92
2022/07/23 11:17:54;;;;;;;13.57;12.77;;;37.40;69.30;;;;;;4919639;29;20055;-92
2022/07/23 11:20:23;;;;;;;13.45;12.73;;;37.90;68.40;;;;;;4911278;29;20040;-91
2022/07/23 11:22:51;;;;;;;14.60;13.60;;;38.10;68.20;;;;;;4914572;29;20030;-93
2022/07/23 11:25:30;;;;;;;13.52;12.73;;;38.00;67.60;;;;;;4932144;29;20063;-92
2022/07/23 11:28:25;;;;;;;12.63;11.82;;;37.30;68.40;;;;;;4919505;29;20031;-92
2022/07/23 11:30:52;;;;;;;12.82;12.02;;;37.10;68.60;;;;;;4931398;29;20055;-91
2022/07/23 11:33:20;;;;;;;13.18;12.32;;;37.20;68.60;;;;;;4930987;29;20035;-89
2022/07/23 11:36:00;;;;;;;13.40;12.25;;;37.40;68.90;;;;;;4908456;29;20381;-91
2022/07/23 11:38:27;;;;;;;13.07;12.10;;;37.80;68.40;;;;;;4923392;29;20027;-90
2022/07/23 11:40:58;;;;;;;13.98;13.00;;;37.90;68.80;;;;;;4923427;29;20031;-90
2022/07/23 11:43:25;;;;;;;13.90;13.02;;;37.80;68.20;;;;;;4907002;29;20027;-90
2022/07/23 11:45:57;;;;;;;13.65;12.95;;;37.60;67.30;;;;;;4938418;29;20031;-90
2022/07/23 11:48:29;;;;;;;14.18;13.13;;;37.60;68.00;;;;;;4922502;29;20040;-89
2022/07/23 11:50:56;;;;;;;13.52;12.63;;;37.50;68.20;;;;;;4921983;29;20052;-90
2022/07/23 11:53:25;;;;;;;13.40;12.52;;;37.60;67.10;;;;;;4906677;29;20418;-91
2022/07/23 11:55:52;;;;;;;12.77;12.07;;;37.00;67.60;;;;;;4906624;29;20489;-91
2022/07/23 11:58:18;;;;;;;13.18;12.48;;;37.10;68.50;;;;;;4922299;29;20118;-89
2022/07/23 12:00:45;;;;;;;13.18;12.43;;;37.40;67.60;;;;;;4906585;29;20027;-90
2022/07/23 12:03:11;;;;;;;13.70;12.52;;;37.50;67.40;;;;;;4906517;29;20031;-90
2022/07/23 12:05:39;;;;;;;13.88;12.98;;;37.70;66.80;;;;;;4906539;29;20028;-89
2022/07/23 12:08:10;;;;;;;13.90;12.90;;;37.70;67.00;;;;;;4906676;29;20028;-91
2022/07/23 12:10:45;;;;;;;13.32;12.50;;;37.80;67.20;;;;;;4937970;29;20032;-90
2022/07/23 12:13:15;;;;;;;13.05;12.20;;;37.80;67.10;;;;;;4921918;29;20054;-90
2022/07/23 12:15:47;;;;;;;13.57;12.77;;;37.80;67.00;;;;;;4922178;29;20035;-89
2022/07/23 12:18:34;;;;;;;13.95;13.00;;;37.90;67.00;;;;;;4937929;29;20042;-89
2022/07/23 12:21:06;;;;;;;13.25;12.30;;;38.00;66.80;;;;;;4921875;29;20031;-90
2022/07/23 12:23:32;;;;;;;13.90;12.70;;;38.00;66.50;;;;;;4906213;29;20032;-90
2022/07/23 12:26:03;;;;;;;13.25;12.25;;;38.10;66.40;;;;;;4937721;29;20034;-89
2022/07/23 12:28:32;;;;;;;13.57;12.60;;;37.90;66.60;;;;;;4906016;29;20521;-90
2022/07/23 12:30:59;;;;;;;13.80;12.60;;;38.00;66.00;;;;;;4905941;29;20118;-91
2022/07/23 12:33:41;;;;;;;13.73;12.63;;;37.80;66.20;;;;;;4921504;29;20038;-91
2022/07/23 12:36:09;;;;;;;13.80;13.00;;;37.90;66.30;;;;;;4906106;29;20035;-91
2022/07/23 12:38:41;;;;;;;14.02;12.95;;;38.00;66.30;;;;;;4921692;29;20115;-92
2022/07/23 12:41:11;;;;;;;13.60;12.65;;;38.20;65.60;;;;;;4921650;29;20599;-91
2022/07/23 12:43:43;;;;;;;13.13;12.32;;;38.30;65.50;;;;;;4921527;29;20035;-90
2022/07/23 12:46:11;;;;;;;14.30;13.20;;;38.20;65.40;;;;;;4921612;29;20105;-90
2022/07/23 12:48:49;;;;;;;13.52;12.68;;;38.00;65.50;;;;;;4937085;29;20031;-91
2022/07/23 12:51:24;;;;;;;13.88;13.00;;;38.00;65.90;;;;;;4936792;29;20091;-91
2022/07/23 12:54:03;;;;;;;13.55;12.57;;;38.20;65.60;;;;;;4905959;29;20032;-90
2022/07/23 12:56:37;;;;;;;13.13;12.43;;;38.10;65.90;;;;;;4921302;29;20028;-92
2022/07/23 12:59:03;;;;;;;13.00;12.30;;;37.70;68.00;;;;;;4922321;29;20035;-91
2022/07/23 13:01:31;;;;;;;13.35;12.55;;;37.50;68.30;;;;;;4905474;29;20028;-91
2022/07/23 13:04:03;;;;;;;13.43;12.63;;;37.20;68.80;;;;;;4921163;29;20035;-91
2022/07/23 13:06:35;;;;;;;14.75;13.80;;;37.30;69.00;;;;;;4905366;29;20043;-92
2022/07/23 13:09:03;;;;;;;14.27;13.13;;;37.20;68.90;;;;;;4904945;29;20079;-91
2022/07/23 13:11:29;;;;;;;13.35;12.57;;;37.30;68.40;;;;;;4904838;29;20036;-93
2022/07/23 13:14:04;;;;;;;13.15;12.35;;;37.20;68.40;;;;;;4945792;23;20043;-96
2022/07/23 13:16:33;;;;;;;13.15;12.32;;;37.20;68.50;;;;;;4905317;29;20040;-93
2022/07/23 13:19:00;;;;;;;13.10;12.30;;;37.20;68.50;;;;;;4905061;29;20067;-91
2022/07/23 13:21:29;;;;;;;13.30;12.40;;;37.10;68.60;;;;;;4902880;29;20075;-91
2022/07/23 13:23:56;;;;;;;13.00;12.30;;;37.30;68.70;;;;;;4902254;29;20079;-93
2022/07/23 13:26:24;;;;;;;13.18;12.30;;;37.20;68.30;;;;;;4902103;29;20087;-92
2022/07/23 13:29:11;;;;;;;12.73;12.02;;;37.20;67.70;;;;;;4902451;29;20039;-91
2022/07/23 13:31:38;;;;;;;13.80;12.73;;;36.90;68.40;;;;;;4901892;29;20481;-90
2022/07/23 13:34:28;;;;;;;12.93;12.10;;;36.60;68.00;;;;;;4901746;29;20032;-88
2022/07/23 13:36:55;;;;;;;13.43;12.27;;;36.60;68.10;;;;;;4901816;29;20032;-89
2022/07/23 13:39:21;;;;;;;13.57;12.55;;;36.70;69.00;;;;;;4901744;29;20038;-89
2022/07/23 13:41:48;;;;;;;13.32;12.52;;;36.80;68.70;;;;;;4886135;29;20039;-89
2022/07/23 13:48:01;;;;;;;13.20;12.40;;;36.90;69.20;;;;;;4865888;29;20037;-66
2022/07/23 13:50:28;;;;;;;13.85;13.07;;;37.00;69.80;;;;;;4864334;29;20049;-91
2022/07/23 13:52:54;;;;;;;13.50;12.80;;;37.00;69.20;;;;;;4845209;29;20033;-71
2022/07/23 13:55:22;;;;;;;14.05;13.13;;;36.60;70.60;;;;;;4859587;29;20530;-77
